createdAt,value
2023-04-19T00:00:12.120Z,103364.69
2023-04-19T00:02:42.878Z,103409.78
2023-04-19T00:05:12.105Z,103403.72
2023-04-19T00:07:40.062Z,103443.03
2023-04-19T00:10:09.215Z,103433.75
2023-04-19T00:12:37.785Z,103437.91
2023-04-19T00:15:06.581Z,103437.47
2023-04-19T00:17:34.766Z,103385.06
2023-04-19T00:20:05.382Z,103433.94
2023-04-19T00:22:33.236Z,103432.88
2023-04-19T00:25:01.053Z,103437.03
2023-04-19T00:27:29.102Z,103428.94
2023-04-19T00:29:57.456Z,103432.03
2023-04-19T00:32:25.559Z,103363.03
2023-04-19T00:34:53.777Z,103397.75
2023-04-19T00:37:22.996Z,103426.44
2023-04-19T00:39:50.820Z,103437.25
2023-04-19T00:42:18.810Z,103438.22
2023-04-19T00:44:46.644Z,103439.59
2023-04-19T00:47:15.461Z,103443.44
2023-04-19T00:49:43.672Z,103427.75
2023-04-19T00:52:11.531Z,103441.78
2023-04-19T00:54:41.976Z,103444.09
2023-04-19T00:57:10.127Z,103373.88
2023-04-19T00:59:38.841Z,103418.53
2023-04-19T01:02:07.510Z,103446.09
2023-04-19T01:04:36.325Z,103416.84
2023-04-19T01:07:04.350Z,103444.44
2023-04-19T01:09:32.192Z,103446.75
2023-04-19T01:12:03.565Z,103445.97
2023-04-19T01:14:31.451Z,103443.22
2023-04-19T01:16:59.410Z,103454.09
2023-04-19T01:19:27.568Z,103414.28
2023-04-19T01:21:56.419Z,103450.13
2023-04-19T01:24:25.708Z,103446.31
2023-04-19T01:26:53.871Z,103441.75
2023-04-19T01:29:22.205Z,103435.50
2023-04-19T01:31:53.706Z,103445.72
2023-04-19T01:34:23.277Z,103445.41
2023-04-19T01:36:51.460Z,103416.16
2023-04-19T01:39:19.398Z,103444.53
2023-04-19T01:41:49.079Z,103402.59
2023-04-19T01:44:17.065Z,103443.16
2023-04-19T01:46:47.881Z,103429.88
2023-04-19T01:49:16.242Z,103436.91
2023-04-19T01:51:44.102Z,103451.41
2023-04-19T01:54:12.133Z,103439.97
2023-04-19T01:56:40.243Z,103441.34
2023-04-19T01:59:09.581Z,103445.44
2023-04-19T02:01:37.508Z,103447.91
2023-04-19T02:04:06.204Z,103421.81
2023-04-19T02:06:34.127Z,103224.06
2023-04-19T02:09:02.137Z,103450.94
2023-04-19T02:11:30.147Z,103398.94
2023-04-19T02:13:58.068Z,103431.59
2023-04-19T02:16:27.386Z,103451.25
2023-04-19T02:18:55.438Z,103444.38
2023-04-19T02:21:23.268Z,103453.25
2023-04-19T02:23:51.170Z,103455.53
2023-04-19T02:26:20.519Z,103446.53
2023-04-19T02:28:48.372Z,103452.47
2023-04-19T02:31:16.637Z,103381.91
2023-04-19T02:33:47.387Z,103445.31
2023-04-19T02:36:15.316Z,103450.34
2023-04-19T02:38:43.388Z,103434.47
2023-04-19T02:41:11.422Z,103450.63
2023-04-19T02:43:39.243Z,103445.91
2023-04-19T02:46:07.258Z,103446.38
2023-04-19T02:48:35.438Z,103443.47
2023-04-19T02:51:04.907Z,103441.94
2023-04-19T02:53:32.785Z,103440.09
2023-04-19T02:56:01.527Z,103435.84
2023-04-19T02:58:29.408Z,103385.53
2023-04-19T03:00:57.295Z,103399.25
2023-04-19T03:03:25.486Z,103432.03
2023-04-19T03:05:53.436Z,103419.22
2023-04-19T03:08:22.650Z,103429.13
2023-04-19T03:10:50.895Z,103413.28
2023-04-19T03:13:18.719Z,103437.34
2023-04-19T03:15:46.805Z,103425.00
2023-04-19T03:18:15.105Z,103420.91
2023-04-19T03:20:42.945Z,103432.50
2023-04-19T03:23:10.948Z,103433.84
2023-04-19T03:25:40.340Z,103434.63
2023-04-19T03:28:08.194Z,103432.78
2023-04-19T03:30:36.027Z,103402.13
2023-04-19T03:33:04.057Z,103437.81
2023-04-19T03:35:32.560Z,103450.44
2023-04-19T03:38:00.542Z,103446.78
2023-04-19T03:40:28.579Z,103444.03
2023-04-19T03:42:57.796Z,103427.72
2023-04-19T03:45:25.704Z,103448.16
2023-04-19T03:47:54.000Z,103454.41
2023-04-19T03:50:21.872Z,103454.25
2023-04-19T03:52:49.771Z,103456.06
2023-04-19T03:55:18.000Z,103457.16
2023-04-19T03:57:45.912Z,103456.66
2023-04-19T04:00:16.687Z,103410.91
2023-04-19T04:02:45.119Z,103456.22
2023-04-19T04:05:13.450Z,103453.03
2023-04-19T04:07:41.445Z,103458.38
2023-04-19T04:10:10.499Z,103422.03
2023-04-19T04:12:38.357Z,103420.22
2023-04-19T04:15:07.141Z,103441.16
2023-04-19T04:17:36.532Z,103447.88
2023-04-19T04:20:05.735Z,103421.81
2023-04-19T04:22:33.828Z,103444.97
2023-04-19T04:25:02.302Z,103456.38
2023-04-19T04:27:30.151Z,103452.28
2023-04-19T04:29:58.000Z,103446.66
2023-04-19T04:32:26.485Z,103448.03
2023-04-19T04:34:56.153Z,103451.25
2023-04-19T04:37:24.439Z,103434.31
2023-04-19T04:39:52.849Z,103448.81
2023-04-19T04:42:21.630Z,103452.00
2023-04-19T04:44:51.287Z,103427.75
2023-04-19T04:47:19.838Z,103447.13
2023-04-19T04:49:47.838Z,103452.94
2023-04-19T04:52:18.632Z,103449.88
2023-04-19T04:54:46.589Z,103446.81
2023-04-19T04:57:14.420Z,103431.88
2023-04-19T04:59:42.407Z,103451.84
2023-04-19T05:02:11.124Z,103388.59
2023-04-19T05:04:39.310Z,103455.06
2023-04-19T05:07:07.449Z,103431.88
2023-04-19T05:09:36.814Z,103453.53
2023-04-19T05:12:05.096Z,103433.84
2023-04-19T05:14:33.380Z,103435.81
2023-04-19T05:17:01.325Z,103434.28
2023-04-19T05:19:29.413Z,103457.44
2023-04-19T05:21:57.647Z,103459.72
2023-04-19T05:24:26.175Z,103463.69
2023-04-19T05:26:55.409Z,103457.56
2023-04-19T05:29:23.427Z,103467.16
2023-04-19T05:31:51.633Z,103440.91
2023-04-19T05:34:22.032Z,103456.13
2023-04-19T05:36:50.314Z,103446.50
2023-04-19T05:39:18.321Z,103468.00
2023-04-19T05:41:46.255Z,103461.69
2023-04-19T05:44:16.044Z,103442.00
2023-04-19T05:46:44.222Z,103464.53
2023-04-19T05:49:12.090Z,103461.75
2023-04-19T05:51:40.110Z,103467.34
2023-04-19T05:54:12.602Z,103461.94
2023-04-19T05:56:40.626Z,103461.88
2023-04-19T05:59:08.536Z,103433.34
2023-04-19T06:01:38.036Z,103469.09
2023-04-19T06:04:06.218Z,103465.38
2023-04-19T06:06:34.275Z,103460.59
2023-04-19T06:09:02.218Z,103460.38
2023-04-19T06:11:38.842Z,103450.13
2023-04-19T06:14:18.160Z,103469.69
2023-04-19T06:16:48.240Z,103463.50
2023-04-19T06:19:16.524Z,103465.09
2023-04-19T06:21:44.379Z,103466.72
2023-04-19T06:24:12.350Z,103449.78
2023-04-19T06:26:40.468Z,103464.56
2023-04-19T06:29:08.402Z,103467.09
2023-04-19T06:31:36.440Z,103411.28
2023-04-19T06:34:05.828Z,103413.94
2023-04-19T06:36:33.996Z,103429.75
2023-04-19T06:39:01.932Z,103452.00
2023-04-19T06:41:29.892Z,103436.00
2023-04-19T06:43:57.796Z,103465.09
2023-04-19T06:46:27.704Z,103467.06
2023-04-19T06:48:56.074Z,103469.03
2023-04-19T06:51:25.288Z,103449.63
2023-04-19T06:53:53.147Z,103460.44
2023-04-19T06:56:40.978Z,103460.91
2023-04-19T06:59:09.117Z,103470.00
2023-04-19T07:01:37.223Z,103454.88
2023-04-19T07:04:08.650Z,103451.84
2023-04-19T07:06:38.838Z,103401.25
2023-04-19T07:09:07.673Z,103447.38
2023-04-19T07:11:35.850Z,103437.41
2023-04-19T07:14:03.968Z,103436.25
2023-04-19T07:16:32.050Z,103439.94
2023-04-19T07:19:00.145Z,103429.09
2023-04-19T07:21:33.029Z,103285.56
2023-04-19T07:24:02.477Z,103396.81
2023-04-19T07:26:30.797Z,103426.47
2023-04-19T07:28:58.933Z,103427.47
2023-04-19T07:31:27.020Z,103424.63
2023-04-19T07:33:55.286Z,103424.56
2023-04-19T07:36:23.264Z,103408.97
2023-04-19T07:38:51.158Z,103421.53
2023-04-19T07:41:21.157Z,103411.72
2023-04-19T07:43:49.025Z,103363.56
2023-04-19T07:46:17.200Z,103412.13
2023-04-19T07:48:46.471Z,103410.78
2023-04-19T07:51:16.447Z,103398.50
2023-04-19T07:53:44.999Z,103403.53
2023-04-19T07:56:13.358Z,103400.16
2023-04-19T07:58:43.900Z,103397.94
2023-04-19T08:01:12.131Z,103380.06
2023-04-19T08:03:40.391Z,103372.09
2023-04-19T08:06:09.344Z,103388.13
2023-04-19T08:08:41.374Z,103384.09
2023-04-19T08:11:09.319Z,103239.09
2023-04-19T08:13:37.170Z,103314.66
2023-04-19T08:18:38.269Z,103386.78
2023-04-19T08:21:06.438Z,103362.47
2023-04-19T08:23:47.256Z,103376.44
2023-04-19T08:26:16.382Z,103379.47
2023-04-19T08:28:44.433Z,103348.63
2023-04-19T08:31:13.778Z,103374.28
2023-04-19T08:33:41.808Z,103382.59
2023-04-19T08:36:10.624Z,103374.00
2023-04-19T08:38:39.033Z,103374.00
2023-04-19T08:41:07.099Z,103375.22
2023-04-19T08:43:39.863Z,103373.81
2023-04-19T08:46:11.807Z,103374.84
2023-04-19T08:48:42.548Z,103356.56
2023-04-19T08:51:13.803Z,103365.25
2023-04-19T08:53:42.389Z,103370.88
2023-04-19T08:56:21.102Z,103346.44
2023-04-19T09:01:35.630Z,103371.75
2023-04-19T09:06:41.820Z,103360.25
2023-04-19T09:09:34.017Z,103353.34
2023-04-19T09:12:05.356Z,103347.97
2023-04-19T09:14:33.350Z,103362.25
2023-04-19T09:17:17.811Z,103354.50
2023-04-19T09:19:51.019Z,103339.59
2023-04-19T09:22:19.534Z,103349.59
2023-04-19T09:27:27.467Z,103348.81
2023-04-19T09:29:57.301Z,103311.59
2023-04-19T09:32:26.534Z,103339.50
2023-04-19T09:34:57.642Z,103334.94
2023-04-19T09:37:51.538Z,103325.31
2023-04-19T09:40:24.608Z,103328.94
2023-04-19T09:45:30.102Z,103329.75
2023-04-19T09:48:04.182Z,103319.94
2023-04-19T09:50:39.113Z,103271.63
2023-04-19T09:53:18.821Z,103325.19
2023-04-19T09:55:59.563Z,103316.78
2023-04-19T09:58:38.249Z,103280.84
2023-04-19T10:01:20.055Z,103319.44
2023-04-19T10:03:51.501Z,103312.41
2023-04-19T10:08:55.856Z,103292.59
2023-04-19T10:11:25.444Z,103322.72
2023-04-19T10:13:58.244Z,103321.78
2023-04-19T10:16:28.269Z,103297.38
2023-04-19T10:18:57.097Z,103315.91
2023-04-19T10:21:29.972Z,103307.28
2023-04-19T10:24:00.032Z,103297.50
2023-04-19T10:26:27.897Z,103299.56
2023-04-19T10:28:57.569Z,103259.63
2023-04-19T10:31:27.652Z,103308.31
2023-04-19T10:33:57.790Z,103272.59
2023-04-19T10:36:28.986Z,103283.84
2023-04-19T10:38:56.922Z,103307.78
2023-04-19T10:41:25.313Z,103280.34
2023-04-19T10:44:11.636Z,103271.72
2023-04-19T10:46:41.178Z,103293.19
2023-04-19T10:49:09.942Z,103301.22
2023-04-19T10:51:42.528Z,103294.19
2023-04-19T10:54:31.484Z,103290.00
2023-04-19T10:57:04.738Z,103284.16
2023-04-19T10:59:33.647Z,103295.16
2023-04-19T11:02:03.247Z,103252.13
2023-04-19T11:05:11.657Z,103277.25
2023-04-19T11:07:44.353Z,103285.69
2023-04-19T11:10:12.868Z,103284.72
2023-04-19T11:12:44.921Z,103254.34
2023-04-19T11:15:13.008Z,103281.53
2023-04-19T11:17:42.778Z,103282.97
2023-04-19T11:20:12.117Z,103280.84
2023-04-19T11:22:42.600Z,103262.13
2023-04-19T11:25:13.999Z,103259.59
2023-04-19T11:27:44.231Z,103284.91
2023-04-19T11:30:14.281Z,103273.41
2023-04-19T11:32:49.680Z,103251.06
2023-04-19T11:35:23.323Z,103276.78
2023-04-19T11:37:52.371Z,103284.72
2023-04-19T11:40:23.337Z,103275.13
2023-04-19T11:42:56.797Z,103276.63
2023-04-19T11:45:33.075Z,103275.16
2023-04-19T11:48:05.856Z,103268.69
2023-04-19T11:50:38.713Z,103260.22
2023-04-19T11:53:17.361Z,103265.91
2023-04-19T11:55:47.824Z,103239.22
2023-04-19T11:58:32.602Z,103265.56
2023-04-19T12:01:07.037Z,103251.56
2023-04-19T12:03:36.456Z,103268.31
2023-04-19T12:06:09.118Z,103260.19
2023-04-19T12:08:38.680Z,103262.78
2023-04-19T12:11:10.588Z,103241.72
2023-04-19T12:13:40.910Z,103259.91
2023-04-19T12:16:09.642Z,103259.56
2023-04-19T12:18:46.062Z,103252.41
2023-04-19T12:21:25.817Z,103225.56
2023-04-19T12:23:58.100Z,103235.09
2023-04-19T12:26:29.373Z,103251.47
2023-04-19T12:28:58.278Z,103248.56
2023-04-19T12:31:26.272Z,103245.97
2023-04-19T12:33:54.370Z,103249.22
2023-04-19T12:36:22.637Z,103241.38
2023-04-19T12:38:50.519Z,103235.88
2023-04-19T12:41:19.345Z,103235.19
2023-04-19T12:43:48.807Z,103229.84
2023-04-19T12:46:16.759Z,103220.09
2023-04-19T12:48:44.700Z,103218.38
2023-04-19T12:51:12.838Z,103221.09
2023-04-19T12:53:42.541Z,103221.06
2023-04-19T12:56:12.065Z,103217.47
2023-04-19T12:58:40.481Z,103226.41
2023-04-19T13:01:09.812Z,103222.84
2023-04-19T13:03:38.016Z,103201.34
2023-04-19T13:06:07.281Z,103206.69
2023-04-19T13:08:44.579Z,103187.75
2023-04-19T13:11:14.881Z,103215.66
2023-04-19T13:13:42.827Z,103207.66
2023-04-19T13:16:12.084Z,103195.06
2023-04-19T13:18:40.584Z,103186.13
2023-04-19T13:21:08.847Z,103203.84
2023-04-19T13:23:36.953Z,103194.72
2023-04-19T13:26:05.238Z,103092.78
2023-04-19T13:28:35.710Z,103190.50
2023-04-19T13:31:04.731Z,103145.59
2023-04-19T13:33:34.475Z,103131.16
2023-04-19T13:36:02.432Z,103142.50
2023-04-19T13:38:30.650Z,103130.75
2023-04-19T13:40:59.392Z,103173.44
2023-04-19T13:43:27.357Z,103164.44
2023-04-19T13:45:55.331Z,103158.22
2023-04-19T13:48:23.658Z,103170.94
2023-04-19T13:50:54.926Z,103152.00
2023-04-19T13:53:23.269Z,103151.66
2023-04-19T13:55:52.246Z,103164.03
2023-04-19T13:58:20.646Z,103152.28
2023-04-19T14:00:49.138Z,103128.00
2023-04-19T14:03:17.632Z,103155.69
2023-04-19T14:05:45.718Z,103158.31
2023-04-19T14:08:15.023Z,103152.84
2023-04-19T14:10:43.134Z,103149.13
2023-04-19T14:13:11.053Z,103149.03
2023-04-19T14:15:38.964Z,103020.06
2023-04-19T14:18:07.180Z,103151.25
2023-04-19T14:20:35.521Z,103148.22
2023-04-19T14:23:03.906Z,103118.06
2023-04-19T14:25:33.286Z,103138.50
2023-04-19T14:28:01.233Z,103133.84
2023-04-19T14:30:31.006Z,103145.84
2023-04-19T14:32:59.119Z,103140.25
2023-04-19T14:35:27.126Z,103083.44
2023-04-19T14:37:55.042Z,103121.25
2023-04-19T14:40:22.975Z,103138.03
2023-04-19T14:42:53.357Z,103136.31
2023-04-19T14:45:21.624Z,103135.00
2023-04-19T14:47:50.383Z,103139.53
2023-04-19T14:50:21.543Z,103131.13
2023-04-19T14:52:49.789Z,103133.75
2023-04-19T14:55:17.804Z,103123.91
2023-04-19T14:57:46.009Z,103132.25
2023-04-19T15:00:16.396Z,103127.38
2023-04-19T15:02:44.426Z,103134.59
2023-04-19T15:05:12.598Z,103142.44
2023-04-19T15:07:40.608Z,103135.41
2023-04-19T15:10:09.505Z,103134.88
2023-04-19T15:12:37.549Z,103123.31
2023-04-19T15:15:06.235Z,103126.84
2023-04-19T15:17:36.043Z,103120.41
2023-04-19T15:20:05.742Z,103107.78
2023-04-19T15:22:33.939Z,103124.91
2023-04-19T15:25:02.178Z,102989.69
2023-04-19T15:27:30.318Z,103096.47
2023-04-19T15:29:58.261Z,103117.06
2023-04-19T15:32:26.604Z,103126.03
2023-04-19T15:34:55.975Z,103121.47
2023-04-19T15:37:23.817Z,103113.97
2023-04-19T15:39:51.648Z,103129.88
2023-04-19T15:42:20.003Z,103115.53
2023-04-19T15:44:47.893Z,103107.31
2023-04-19T15:47:15.913Z,103111.09
2023-04-19T15:49:43.862Z,103119.22
2023-04-19T15:52:13.093Z,103111.06
2023-04-19T15:54:41.290Z,103101.22
2023-04-19T15:57:09.328Z,103108.34
2023-04-19T15:59:37.290Z,102958.44
2023-04-19T16:02:05.557Z,103009.63
2023-04-19T16:04:34.761Z,103043.53
2023-04-19T16:07:02.875Z,103114.44
2023-04-19T16:09:32.304Z,103099.13
2023-04-19T16:12:00.906Z,103088.81
2023-04-19T16:14:28.802Z,103106.00
2023-04-19T16:16:56.743Z,103108.81
2023-04-19T16:19:25.891Z,103101.88
2023-04-19T16:21:53.744Z,103103.78
2023-04-19T16:24:21.744Z,103094.75
2023-04-19T16:26:51.072Z,103082.97
2023-04-19T16:29:19.063Z,103094.59
2023-04-19T16:31:48.555Z,103094.66
2023-04-19T16:34:19.058Z,103103.53
2023-04-19T16:36:47.383Z,103103.13
2023-04-19T16:39:17.992Z,103101.25
2023-04-19T16:41:46.374Z,103109.53
2023-04-19T16:44:15.574Z,103104.75
2023-04-19T16:46:44.029Z,103105.91
2023-04-19T16:49:12.136Z,103111.84
2023-04-19T16:51:39.979Z,103112.09
2023-04-19T16:54:07.804Z,103111.47
2023-04-19T16:56:35.730Z,103114.38
2023-04-19T16:59:03.930Z,103116.84
2023-04-19T17:01:33.141Z,103120.59
2023-04-19T17:04:01.480Z,103111.31
2023-04-19T17:06:29.434Z,103122.13
2023-04-19T17:08:57.331Z,103115.59
2023-04-19T17:11:25.490Z,103104.38
2023-04-19T17:13:55.305Z,103122.00
2023-04-19T17:16:25.000Z,103128.53
2023-04-19T17:18:56.797Z,103127.03
2023-04-19T17:21:27.798Z,103131.84
2023-04-19T17:23:55.725Z,103085.03
2023-04-19T17:26:23.682Z,103132.69
2023-04-19T17:28:51.690Z,103133.63
2023-04-19T17:31:19.680Z,103138.72
2023-04-19T17:33:47.586Z,103139.28
2023-04-19T17:36:16.929Z,103133.59
2023-04-19T17:38:45.107Z,103135.81
2023-04-19T17:41:16.307Z,103134.50
2023-04-19T17:43:44.602Z,103117.22
2023-04-19T17:46:13.290Z,103145.63
2023-04-19T17:48:41.233Z,103141.44
2023-04-19T17:51:09.555Z,103081.09
2023-04-19T17:53:38.852Z,103147.97
2023-04-19T17:56:06.879Z,103143.88
2023-04-19T17:58:36.261Z,103131.44
2023-04-19T18:01:04.515Z,103139.97
2023-04-19T18:03:32.707Z,103057.47
2023-04-19T18:06:00.762Z,103122.09
2023-04-19T18:08:28.738Z,103144.50
2023-04-19T18:10:57.972Z,103146.59
2023-04-19T18:13:26.656Z,102994.78
2023-04-19T18:15:54.854Z,103125.84
2023-04-19T18:18:23.361Z,103147.81
2023-04-19T18:20:51.597Z,103102.44
2023-04-19T18:23:19.622Z,103155.06
2023-04-19T18:25:54.291Z,103143.22
2023-04-19T18:28:23.658Z,103126.44
2023-04-19T18:30:51.498Z,103144.13
2023-04-19T18:33:28.094Z,103150.53
2023-04-19T18:35:56.096Z,103142.53
2023-04-19T18:38:23.999Z,103086.34
2023-04-19T18:40:52.511Z,103156.06
2023-04-19T18:43:20.563Z,103157.56
2023-04-19T18:45:56.191Z,103128.34
2023-04-19T18:48:27.991Z,103148.63
2023-04-19T18:50:57.198Z,103168.22
2023-04-19T18:53:26.876Z,102966.44
2023-04-19T18:55:57.603Z,103114.09
2023-04-19T18:58:28.156Z,103167.94
2023-04-19T19:00:57.742Z,103170.47
2023-04-19T19:05:58.512Z,103074.78
2023-04-19T19:08:26.734Z,103172.41
2023-04-19T19:13:25.641Z,103167.38
2023-04-19T19:15:53.826Z,103130.47
2023-04-19T19:18:23.240Z,103171.53
2023-04-19T19:20:51.679Z,103101.78
2023-04-19T19:23:20.517Z,103177.66
2023-04-19T19:25:54.215Z,103177.44
2023-04-19T19:28:22.554Z,103153.72
2023-04-19T19:30:50.829Z,103152.09
2023-04-19T19:33:19.092Z,103112.81
2023-04-19T19:35:48.363Z,103162.66
2023-04-19T19:38:16.469Z,103161.09
2023-04-19T19:43:16.427Z,103181.38
2023-04-19T19:45:44.505Z,103181.16
2023-04-19T19:48:12.656Z,103188.81
2023-04-19T19:53:13.004Z,103187.00
2023-04-19T19:55:40.986Z,103187.69
2023-04-19T20:00:46.850Z,103188.16
2023-04-19T20:03:24.889Z,103194.00
2023-04-19T20:06:35.551Z,103195.38
2023-04-19T20:08:56.172Z,103179.25
2023-04-19T20:11:24.554Z,103185.28
2023-04-19T20:13:52.405Z,103191.31
2023-04-19T20:16:20.971Z,103171.09
2023-04-19T20:18:49.924Z,103192.38
2023-04-19T20:21:19.654Z,103200.91
2023-04-19T20:23:47.573Z,103186.59
2023-04-19T20:26:17.021Z,103191.50
2023-04-19T20:28:44.849Z,103183.69
2023-04-19T20:31:12.694Z,103198.00
2023-04-19T20:33:40.812Z,103197.00
2023-04-19T20:36:09.562Z,103207.56
2023-04-19T20:38:37.514Z,103199.38
2023-04-19T20:41:06.157Z,103195.75
2023-04-19T20:43:35.679Z,103184.19
2023-04-19T20:46:03.674Z,103201.00
2023-04-19T20:48:31.939Z,103129.88
2023-04-19T20:50:59.783Z,103174.88
2023-04-19T20:53:27.802Z,103206.03
2023-04-19T20:55:56.096Z,103207.19
2023-04-19T20:58:23.955Z,103193.19
2023-04-19T21:00:53.368Z,103209.13
2023-04-19T21:03:21.462Z,103205.25
2023-04-19T21:05:49.514Z,103215.13
2023-04-19T21:08:19.100Z,103193.94
2023-04-19T21:10:48.359Z,103210.13
2023-04-19T21:13:16.255Z,103211.84
2023-04-19T21:15:44.319Z,103188.84
2023-04-19T21:18:13.635Z,103201.78
2023-04-19T21:20:41.497Z,103213.16
2023-04-19T21:23:09.442Z,103204.28
2023-04-19T21:25:37.370Z,103212.13
2023-04-19T21:28:05.223Z,103208.38
2023-04-19T21:30:33.589Z,103217.78
2023-04-19T21:33:01.626Z,103126.28
2023-04-19T21:35:30.882Z,103217.78
2023-04-19T21:37:59.059Z,103210.06
2023-04-19T21:40:27.079Z,103214.13
2023-04-19T21:42:55.004Z,103209.34
2023-04-19T21:45:22.960Z,103213.66
2023-04-19T21:47:51.997Z,103170.94
2023-04-19T21:50:19.987Z,103205.94
2023-04-19T21:52:49.282Z,103200.81
2023-04-19T21:55:17.221Z,103204.28
2023-04-19T21:57:45.091Z,103197.91
2023-04-19T22:00:13.921Z,103191.00
2023-04-19T22:02:42.139Z,103184.25
2023-04-19T22:05:10.436Z,103183.22
2023-04-19T22:07:38.651Z,103195.97
2023-04-19T22:10:09.715Z,103187.00
2023-04-19T22:12:47.971Z,103188.81
2023-04-19T22:15:23.456Z,103150.13
2023-04-19T22:17:52.042Z,103180.56
2023-04-19T22:20:20.235Z,103064.56
2023-04-19T22:22:48.273Z,103119.31
2023-04-19T22:25:17.477Z,103196.31
2023-04-19T22:27:45.708Z,103201.28
2023-04-19T22:30:14.159Z,103174.75
2023-04-19T22:32:42.032Z,103195.44
2023-04-19T22:35:10.623Z,103195.09
2023-04-19T22:37:38.664Z,103161.28
2023-04-19T22:40:07.855Z,103130.63
2023-04-19T22:42:37.225Z,103196.09
2023-04-19T22:45:06.389Z,103198.47
2023-04-19T22:47:34.286Z,103188.69
2023-04-19T22:50:02.309Z,103200.69
2023-04-19T22:52:30.510Z,103189.09
2023-04-19T22:54:58.467Z,103190.06
2023-04-19T22:57:26.425Z,103185.00
2023-04-19T22:59:55.861Z,103196.22
2023-04-19T23:02:23.773Z,103195.72
2023-04-19T23:04:52.277Z,103109.34
2023-04-19T23:07:22.060Z,103181.66
2023-04-19T23:09:51.052Z,103190.63
2023-04-19T23:12:18.899Z,103182.84
2023-04-19T23:14:48.576Z,103191.16
2023-04-19T23:17:18.201Z,103197.03
2023-04-19T23:19:46.460Z,103181.56
2023-04-19T23:22:14.541Z,103187.16
2023-04-19T23:24:42.375Z,103185.75
2023-04-19T23:27:10.382Z,103182.75
2023-04-19T23:29:39.103Z,103179.00
2023-04-19T23:32:07.197Z,103120.94
2023-04-19T23:34:37.435Z,103166.25
2023-04-19T23:37:05.792Z,103183.19
2023-04-19T23:39:33.794Z,103181.88
2023-04-19T23:42:02.186Z,103180.47
2023-04-19T23:44:30.616Z,103175.78
2023-04-19T23:46:58.652Z,103169.38
2023-04-19T23:49:26.571Z,103144.13
2023-04-19T23:51:55.923Z,103170.41
2023-04-19T23:54:26.172Z,102980.81
2023-04-19T23:56:54.240Z,103176.28
2023-04-19T23:59:26.873Z,103166.25
